sensor_id;sensor_type;location;lat;lon;timestamp;pressure;altitude;pressure_sealevel;temperature;humidity
34081;BME280;20358;50.272;19.026;2023-04-10T00:02:08;99054.31;;;5.38;68.25
34081;BME280;20358;50.272;19.026;2023-04-10T00:05:14;99045.88;;;5.31;68.48
34081;BME280;20358;50.272;19.026;2023-04-10T00:08:21;99043.13;;;5.34;68.76
34081;BME280;20358;50.272;19.026;2023-04-10T00:11:30;99039.97;;;5.26;68.77
34081;BME280;20358;50.272;19.026;2023-04-10T00:14:37;99035.13;;;5.17;68.77
34081;BME280;20358;50.272;19.026;2023-04-10T00:17:42;99031.97;;;5.09;69.33
34081;BME280;20358;50.272;19.026;2023-04-10T00:20:48;99026.84;;;5.06;68.98
34081;BME280;20358;50.272;19.026;2023-04-10T00:23:54;99024.31;;;5.05;69.27
34081;BME280;20358;50.272;19.026;2023-04-10T00:27:03;99032.25;;;5.03;69.32
34081;BME280;20358;50.272;19.026;2023-04-10T00:30:09;99018.22;;;5.04;69.67
34081;BME280;20358;50.272;19.026;2023-04-10T00:33:16;99024.72;;;5.16;69.28
34081;BME280;20358;50.272;19.026;2023-04-10T00:36:22;99024.41;;;5.23;68.65
34081;BME280;20358;50.272;19.026;2023-04-10T00:39:30;99024.16;;;5.29;68.83
34081;BME280;20358;50.272;19.026;2023-04-10T00:42:39;99027.53;;;5.31;68.93
34081;BME280;20358;50.272;19.026;2023-04-10T00:45:45;99029.22;;;5.32;68.83
34081;BME280;20358;50.272;19.026;2023-04-10T00:48:52;99037.75;;;5.37;68.69
34081;BME280;20358;50.272;19.026;2023-04-10T00:52:01;99040.25;;;5.40;68.47
34081;BME280;20358;50.272;19.026;2023-04-10T00:55:08;99035.69;;;5.45;68.30
34081;BME280;20358;50.272;19.026;2023-04-10T00:58:18;99028.47;;;5.50;68.33
34081;BME280;20358;50.272;19.026;2023-04-10T01:01:24;99033.72;;;5.50;68.22
34081;BME280;20358;50.272;19.026;2023-04-10T01:04:32;99032.88;;;5.50;68.19
34081;BME280;20358;50.272;19.026;2023-04-10T01:07:52;99028.88;;;5.41;68.37
34081;BME280;20358;50.272;19.026;2023-04-10T01:11:22;99029.78;;;5.40;68.60
34081;BME280;20358;50.272;19.026;2023-04-10T01:14:48;99024.50;;;5.42;68.40
34081;BME280;20358;50.272;19.026;2023-04-10T01:18:08;99024.63;;;5.39;68.59
34081;BME280;20358;50.272;19.026;2023-04-10T01:21:22;99016.94;;;5.34;68.71
34081;BME280;20358;50.272;19.026;2023-04-10T01:24:52;99025.81;;;5.30;69.09
34081;BME280;20358;50.272;19.026;2023-04-10T01:28:27;99031.72;;;5.35;68.86
34081;BME280;20358;50.272;19.026;2023-04-10T01:31:52;99027.41;;;5.34;68.92
34081;BME280;20358;50.272;19.026;2023-04-10T01:35:06;99037.91;;;5.34;69.04
34081;BME280;20358;50.272;19.026;2023-04-10T01:38:17;99036.09;;;5.35;69.09
34081;BME280;20358;50.272;19.026;2023-04-10T01:41:26;99043.91;;;5.36;69.38
34081;BME280;20358;50.272;19.026;2023-04-10T01:44:41;99040.25;;;5.40;69.09
34081;BME280;20358;50.272;19.026;2023-04-10T01:47:50;99044.47;;;5.44;69.16
34081;BME280;20358;50.272;19.026;2023-04-10T01:51:02;99040.88;;;5.47;69.04
34081;BME280;20358;50.272;19.026;2023-04-10T01:54:10;99030.56;;;5.42;69.34
34081;BME280;20358;50.272;19.026;2023-04-10T01:57:19;99034.13;;;5.41;69.39
34081;BME280;20358;50.272;19.026;2023-04-10T02:00:39;99029.88;;;5.37;69.39
34081;BME280;20358;50.272;19.026;2023-04-10T02:03:49;99024.16;;;5.29;69.62
34081;BME280;20358;50.272;19.026;2023-04-10T02:07:02;99024.16;;;5.29;69.55
34081;BME280;20358;50.272;19.026;2023-04-10T02:10:13;99026.25;;;5.41;69.32
34081;BME280;20358;50.272;19.026;2023-04-10T02:13:28;99029.63;;;5.45;69.24
34081;BME280;20358;50.272;19.026;2023-04-10T02:16:40;99034.25;;;5.38;69.31
34081;BME280;20358;50.272;19.026;2023-04-10T02:19:47;99025.94;;;5.27;69.86
34081;BME280;20358;50.272;19.026;2023-04-10T02:22:58;98997.66;;;4.95;69.96
34081;BME280;20358;50.272;19.026;2023-04-10T02:26:07;99039.91;;;5.08;70.56
34081;BME280;20358;50.272;19.026;2023-04-10T02:29:14;99026.84;;;5.06;70.81
34081;BME280;20358;50.272;19.026;2023-04-10T02:32:23;99024.06;;;5.11;70.80
34081;BME280;20358;50.272;19.026;2023-04-10T02:35:30;99030.81;;;5.16;70.45
34081;BME280;20358;50.272;19.026;2023-04-10T02:38:37;99031.84;;;5.12;70.81
34081;BME280;20358;50.272;19.026;2023-04-10T02:41:45;99036.50;;;5.06;71.23
34081;BME280;20358;50.272;19.026;2023-04-10T02:44:51;99034.59;;;5.09;71.14
34081;BME280;20358;50.272;19.026;2023-04-10T02:48:01;99034.19;;;4.98;71.33
34081;BME280;20358;50.272;19.026;2023-04-10T02:51:07;99040.53;;;4.93;71.70
34081;BME280;20358;50.272;19.026;2023-04-10T02:54:14;99037.84;;;4.94;71.53
34081;BME280;20358;50.272;19.026;2023-04-10T02:57:19;99035.47;;;4.88;71.59
34081;BME280;20358;50.272;19.026;2023-04-10T03:00:26;99047.75;;;4.86;72.24
34081;BME280;20358;50.272;19.026;2023-04-10T03:03:50;99046.63;;;4.93;72.24
34081;BME280;20358;50.272;19.026;2023-04-10T03:07:03;99040.34;;;4.97;72.27
34081;BME280;20358;50.272;19.026;2023-04-10T03:10:11;99038.28;;;5.04;71.82
34081;BME280;20358;50.272;19.026;2023-04-10T03:13:18;99042.56;;;5.06;71.54
34081;BME280;20358;50.272;19.026;2023-04-10T03:16:24;99041.53;;;5.10;71.77
34081;BME280;20358;50.272;19.026;2023-04-10T03:19:34;99036.16;;;5.13;71.64
34081;BME280;20358;50.272;19.026;2023-04-10T03:22:40;99037.28;;;5.08;71.72
34081;BME280;20358;50.272;19.026;2023-04-10T03:25:49;99032.25;;;5.03;71.92
34081;BME280;20358;50.272;19.026;2023-04-10T03:29:00;99042.56;;;5.06;72.02
34081;BME280;20358;50.272;19.026;2023-04-10T03:32:08;99039.28;;;5.01;72.30
34081;BME280;20358;50.272;19.026;2023-04-10T03:35:17;99039.44;;;4.98;72.29
34081;BME280;20358;50.272;19.026;2023-04-10T03:38:24;99036.94;;;4.95;72.50
34081;BME280;20358;50.272;19.026;2023-04-10T03:41:30;99038.88;;;4.90;72.50
34081;BME280;20358;50.272;19.026;2023-04-10T03:44:36;99034.56;;;4.89;73.40
34081;BME280;20358;50.272;19.026;2023-04-10T03:47:42;99042.16;;;4.95;73.03
34081;BME280;20358;50.272;19.026;2023-04-10T03:50:53;99037.47;;;5.03;72.87
34081;BME280;20358;50.272;19.026;2023-04-10T03:53:59;99030.53;;;5.02;72.29
34081;BME280;20358;50.272;19.026;2023-04-10T03:57:05;99031.44;;;5.01;72.61
34081;BME280;20358;50.272;19.026;2023-04-10T04:00:12;99033.03;;;5.05;73.24
34081;BME280;20358;50.272;19.026;2023-04-10T04:03:22;99029.75;;;5.00;72.75
34081;BME280;20358;50.272;19.026;2023-04-10T04:07:02;99037.47;;;5.03;72.60
34081;BME280;20358;50.272;19.026;2023-04-10T04:10:27;99031.38;;;5.03;72.66
34081;BME280;20358;50.272;19.026;2023-04-10T04:13:45;99037.59;;;5.00;72.67
34081;BME280;20358;50.272;19.026;2023-04-10T04:17:32;99036.00;;;4.96;72.76
34081;BME280;20358;50.272;19.026;2023-04-10T04:20:38;99046.63;;;4.93;73.32
34081;BME280;20358;50.272;19.026;2023-04-10T04:24:14;99039.66;;;4.92;72.65
34081;BME280;20358;50.272;19.026;2023-04-10T04:28:00;99039.56;;;4.95;73.19
34081;BME280;20358;50.272;19.026;2023-04-10T04:31:25;99046.34;;;4.99;73.06
34081;BME280;20358;50.272;19.026;2023-04-10T04:34:53;99043.84;;;4.96;72.88
34081;BME280;20358;50.272;19.026;2023-04-10T04:38:17;99048.53;;;4.88;73.24
34081;BME280;20358;50.272;19.026;2023-04-10T04:42:13;99060.25;;;4.79;73.29
34081;BME280;20358;50.272;19.026;2023-04-10T04:45:37;99050.66;;;4.80;73.61
34081;BME280;20358;50.272;19.026;2023-04-10T04:49:10;99064.50;;;4.82;73.52
34081;BME280;20358;50.272;19.026;2023-04-10T04:52:57;99057.09;;;4.93;73.56
34081;BME280;20358;50.272;19.026;2023-04-10T04:56:46;99051.69;;;4.96;73.24
34081;BME280;20358;50.272;19.026;2023-04-10T05:00:03;99055.41;;;4.90;72.77
34081;BME280;20358;50.272;19.026;2023-04-10T05:03:56;99073.53;;;4.75;73.29
34081;BME280;20358;50.272;19.026;2023-04-10T05:07:11;99073.38;;;4.78;72.94
34081;BME280;20358;50.272;19.026;2023-04-10T05:10:31;99075.56;;;4.88;73.22
34081;BME280;20358;50.272;19.026;2023-04-10T05:13:49;99070.84;;;4.98;72.76
34081;BME280;20358;50.272;19.026;2023-04-10T05:17:00;99080.19;;;5.04;72.45
34081;BME280;20358;50.272;19.026;2023-04-10T05:20:18;99074.81;;;5.07;72.31
34081;BME280;20358;50.272;19.026;2023-04-10T05:23:53;99082.63;;;5.08;72.05
34081;BME280;20358;50.272;19.026;2023-04-10T05:27:16;99084.81;;;4.97;72.20
34081;BME280;20358;50.272;19.026;2023-04-10T05:30:27;99083.00;;;4.99;72.30
34081;BME280;20358;50.272;19.026;2023-04-10T05:34:30;99073.50;;;4.97;72.52
34081;BME280;20358;50.272;19.026;2023-04-10T05:37:45;99076.78;;;5.02;72.53
34081;BME280;20358;50.272;19.026;2023-04-10T05:41:07;99077.63;;;5.02;72.23
34081;BME280;20358;50.272;19.026;2023-04-10T05:44:24;99073.84;;;5.09;72.48
34081;BME280;20358;50.272;19.026;2023-04-10T05:48:24;99084.09;;;5.15;72.24
34081;BME280;20358;50.272;19.026;2023-04-10T05:51:55;99087.38;;;5.20;71.96
34081;BME280;20358;50.272;19.026;2023-04-10T05:55:05;99094.91;;;5.28;71.99
34081;BME280;20358;50.272;19.026;2023-04-10T05:58:15;99084.06;;;5.37;71.72
34081;BME280;20358;50.272;19.026;2023-04-10T06:02:14;99094.91;;;5.49;71.41
34081;BME280;20358;50.272;19.026;2023-04-10T06:05:21;99091.34;;;5.50;70.81
34081;BME280;20358;50.272;19.026;2023-04-10T06:08:36;99092.28;;;5.49;70.61
34081;BME280;20358;50.272;19.026;2023-04-10T06:11:42;99103.53;;;5.51;71.16
34081;BME280;20358;50.272;19.026;2023-04-10T06:14:53;99101.69;;;5.53;70.41
34081;BME280;20358;50.272;19.026;2023-04-10T06:17:59;99093.06;;;5.51;71.07
34081;BME280;20358;50.272;19.026;2023-04-10T06:21:06;99101.69;;;5.53;70.58
34081;BME280;20358;50.272;19.026;2023-04-10T06:24:15;99106.81;;;5.57;70.55
34081;BME280;20358;50.272;19.026;2023-04-10T06:27:22;99100.84;;;5.53;70.85
34081;BME280;20358;50.272;19.026;2023-04-10T06:30:27;99099.28;;;5.49;70.74
34081;BME280;20358;50.272;19.026;2023-04-10T06:33:36;99108.78;;;5.51;70.87
34081;BME280;20358;50.272;19.026;2023-04-10T06:36:44;99101.69;;;5.53;70.79
34081;BME280;20358;50.272;19.026;2023-04-10T06:40:00;99106.69;;;5.60;70.82
34081;BME280;20358;50.272;19.026;2023-04-10T06:43:07;99110.94;;;5.62;70.60
34081;BME280;20358;50.272;19.026;2023-04-10T06:46:14;99104.53;;;5.69;70.49
34081;BME280;20358;50.272;19.026;2023-04-10T06:49:21;99111.69;;;5.66;70.46
34081;BME280;20358;50.272;19.026;2023-04-10T06:52:31;99113.50;;;5.64;70.25
34081;BME280;20358;50.272;19.026;2023-04-10T06:55:39;99116.00;;;5.67;70.37
34081;BME280;20358;50.272;19.026;2023-04-10T06:58:46;99115.13;;;5.66;70.03
34081;BME280;20358;50.272;19.026;2023-04-10T07:01:51;99122.41;;;5.60;69.97
34081;BME280;20358;50.272;19.026;2023-04-10T07:04:58;99113.81;;;5.56;70.24
34081;BME280;20358;50.272;19.026;2023-04-10T07:08:03;99112.47;;;5.47;70.54
34081;BME280;20358;50.272;19.026;2023-04-10T07:11:13;99107.34;;;5.44;70.74
34081;BME280;20358;50.272;19.026;2023-04-10T07:14:19;99109.88;;;5.46;70.54
34081;BME280;20358;50.272;19.026;2023-04-10T07:17:25;99107.47;;;5.41;70.69
34081;BME280;20358;50.272;19.026;2023-04-10T07:20:31;99097.00;;;5.41;71.38
34081;BME280;20358;50.272;19.026;2023-04-10T07:23:37;99108.00;;;5.49;70.94
34081;BME280;20358;50.272;19.026;2023-04-10T07:26:46;99103.41;;;5.55;70.62
34081;BME280;20358;50.272;19.026;2023-04-10T07:29:54;99110.63;;;5.49;70.86
34081;BME280;20358;50.272;19.026;2023-04-10T07:32:59;99105.63;;;5.43;71.05
34081;BME280;20358;50.272;19.026;2023-04-10T07:36:07;99105.19;;;5.54;71.25
34081;BME280;20358;50.272;19.026;2023-04-10T07:39:13;99102.56;;;5.54;70.94
34081;BME280;20358;50.272;19.026;2023-04-10T07:42:22;99103.88;;;5.64;70.67
34081;BME280;20358;50.272;19.026;2023-04-10T07:45:27;99101.19;;;5.66;71.17
34081;BME280;20358;50.272;19.026;2023-04-10T07:48:34;99103.66;;;5.69;70.59
34081;BME280;20358;50.272;19.026;2023-04-10T07:51:39;99088.41;;;5.58;70.15
34081;BME280;20358;50.272;19.026;2023-04-10T07:54:46;99101.44;;;5.60;70.86
34081;BME280;20358;50.272;19.026;2023-04-10T07:57:54;99109.72;;;5.71;70.45
34081;BME280;20358;50.272;19.026;2023-04-10T08:01:00;99100.41;;;5.84;70.19
34081;BME280;20358;50.272;19.026;2023-04-10T08:04:07;99101.41;;;6.00;70.46
34081;BME280;20358;50.272;19.026;2023-04-10T08:07:14;99103.34;;;5.96;69.74
34081;BME280;20358;50.272;19.026;2023-04-10T08:10:19;99104.84;;;6.02;69.62
34081;BME280;20358;50.272;19.026;2023-04-10T08:13:29;99097.28;;;5.94;69.86
34081;BME280;20358;50.272;19.026;2023-04-10T08:16:35;99097.03;;;6.00;70.21
34081;BME280;20358;50.272;19.026;2023-04-10T08:19:42;99101.41;;;6.20;70.20
34081;BME280;20358;50.272;19.026;2023-04-10T08:22:47;99104.25;;;6.34;69.19
34081;BME280;20358;50.272;19.026;2023-04-10T08:25:54;99105.47;;;6.46;68.58
34081;BME280;20358;50.272;19.026;2023-04-10T08:29:02;99107.75;;;6.53;68.42
34081;BME280;20358;50.272;19.026;2023-04-10T08:32:09;99101.91;;;6.65;68.50
34081;BME280;20358;50.272;19.026;2023-04-10T08:35:14;99104.91;;;6.77;68.11
34081;BME280;20358;50.272;19.026;2023-04-10T08:38:21;99099.94;;;6.89;67.63
34081;BME280;20358;50.272;19.026;2023-04-10T08:41:28;99105.72;;;6.96;67.93
34081;BME280;20358;50.272;19.026;2023-04-10T08:44:38;99106.94;;;7.07;67.34
34081;BME280;20358;50.272;19.026;2023-04-10T08:47:46;99094.50;;;7.11;67.31
34081;BME280;20358;50.272;19.026;2023-04-10T08:51:00;99090.19;;;7.27;67.40
34081;BME280;20358;50.272;19.026;2023-04-10T08:54:25;99089.28;;;7.45;67.25
34081;BME280;20358;50.272;19.026;2023-04-10T08:57:35;99096.47;;;7.59;66.62
34081;BME280;20358;50.272;19.026;2023-04-10T09:00:52;99085.56;;;7.66;66.19
34081;BME280;20358;50.272;19.026;2023-04-10T09:03:58;99101.34;;;7.83;65.30
34081;BME280;20358;50.272;19.026;2023-04-10T09:07:05;99098.97;;;7.94;65.66
34081;BME280;20358;50.272;19.026;2023-04-10T09:10:12;99100.94;;;8.08;64.81
34081;BME280;20358;50.272;19.026;2023-04-10T09:13:34;99107.06;;;8.09;63.91
34081;BME280;20358;50.272;19.026;2023-04-10T09:16:45;99114.84;;;8.10;63.87
34081;BME280;20358;50.272;19.026;2023-04-10T09:19:52;99105.19;;;8.11;64.64
34081;BME280;20358;50.272;19.026;2023-04-10T09:22:59;99110.75;;;8.05;63.70
34081;BME280;20358;50.272;19.026;2023-04-10T09:26:22;99069.38;;;7.74;63.75
34081;BME280;20358;50.272;19.026;2023-04-10T09:29:44;99092.97;;;7.92;65.21
34081;BME280;20358;50.272;19.026;2023-04-10T09:32:53;99091.44;;;7.88;65.43
34081;BME280;20358;50.272;19.026;2023-04-10T09:36:01;99098.78;;;7.82;64.91
34081;BME280;20358;50.272;19.026;2023-04-10T09:39:09;99098.09;;;7.78;65.39
34081;BME280;20358;50.272;19.026;2023-04-10T09:42:29;99083.84;;;7.82;65.21
34081;BME280;20358;50.272;19.026;2023-04-10T09:45:46;99086.16;;;7.88;65.23
34081;BME280;20358;50.272;19.026;2023-04-10T09:48:59;99080.34;;;7.99;64.86
34081;BME280;20358;50.272;19.026;2023-04-10T09:52:17;99081.94;;;8.19;64.62
34081;BME280;20358;50.272;19.026;2023-04-10T09:55:24;99076.63;;;8.36;64.83
34081;BME280;20358;50.272;19.026;2023-04-10T09:58:30;99074.25;;;8.47;63.39
34081;BME280;20358;50.272;19.026;2023-04-10T10:01:38;99066.09;;;8.51;62.91
34081;BME280;20358;50.272;19.026;2023-04-10T10:04:49;99071.47;;;8.50;63.58
34081;BME280;20358;50.272;19.026;2023-04-10T10:07:57;99076.56;;;8.53;62.96
34081;BME280;20358;50.272;19.026;2023-04-10T10:11:06;99055.34;;;8.56;63.10
34081;BME280;20358;50.272;19.026;2023-04-10T10:14:17;99057.63;;;8.62;62.71
34081;BME280;20358;50.272;19.026;2023-04-10T10:17:32;99063.25;;;8.72;63.20
34081;BME280;20358;50.272;19.026;2023-04-10T10:20:45;99052.94;;;8.83;62.07
34081;BME280;20358;50.272;19.026;2023-04-10T10:23:53;99056.25;;;8.86;61.45
34081;BME280;20358;50.272;19.026;2023-04-10T10:27:04;99056.25;;;8.86;61.65
34081;BME280;20358;50.272;19.026;2023-04-10T10:30:16;99060.41;;;8.90;61.85
34081;BME280;20358;50.272;19.026;2023-04-10T10:33:34;99047.00;;;8.95;61.81
34081;BME280;20358;50.272;19.026;2023-04-10T10:36:44;99058.72;;;8.89;61.63
34081;BME280;20358;50.272;19.026;2023-04-10T10:39:59;99052.78;;;8.86;62.46
34081;BME280;20358;50.272;19.026;2023-04-10T10:43:16;99051.75;;;8.88;62.07
34081;BME280;20358;50.272;19.026;2023-04-10T10:46:36;99039.00;;;8.96;61.55
34081;BME280;20358;50.272;19.026;2023-04-10T10:49:55;99045.44;;;9.06;61.96
34081;BME280;20358;50.272;19.026;2023-04-10T10:53:05;99039.81;;;9.12;62.23
34081;BME280;20358;50.272;19.026;2023-04-10T10:56:33;99035.19;;;9.32;61.37
34081;BME280;20358;50.272;19.026;2023-04-10T10:59:53;99043.31;;;9.43;61.55
34081;BME280;20358;50.272;19.026;2023-04-10T11:03:26;99024.25;;;9.53;60.62
34081;BME280;20358;50.272;19.026;2023-04-10T11:06:50;98990.78;;;9.40;60.09
34081;BME280;20358;50.272;19.026;2023-04-10T11:09:59;99033.00;;;9.68;59.68
34081;BME280;20358;50.272;19.026;2023-04-10T11:13:15;99027.56;;;9.71;59.53
34081;BME280;20358;50.272;19.026;2023-04-10T11:16:23;99022.59;;;9.80;59.67
34081;BME280;20358;50.272;19.026;2023-04-10T11:19:57;98993.66;;;9.79;59.49
34081;BME280;20358;50.272;19.026;2023-04-10T11:23:10;99016.28;;;10.11;58.74
34081;BME280;20358;50.272;19.026;2023-04-10T11:26:39;99016.84;;;10.30;58.87
34081;BME280;20358;50.272;19.026;2023-04-10T11:29:45;99008.97;;;10.57;58.22
34081;BME280;20358;50.272;19.026;2023-04-10T11:32:52;99006.06;;;10.74;57.25
34081;BME280;20358;50.272;19.026;2023-04-10T11:35:58;99011.81;;;10.81;56.61
34081;BME280;20358;50.272;19.026;2023-04-10T11:39:06;99002.19;;;10.80;56.60
34081;BME280;20358;50.272;19.026;2023-04-10T11:42:19;98995.31;;;10.77;56.50
34081;BME280;20358;50.272;19.026;2023-04-10T11:45:27;98992.84;;;10.74;56.64
34081;BME280;20358;50.272;19.026;2023-04-10T11:48:33;98981.34;;;10.75;56.70
34081;BME280;20358;50.272;19.026;2023-04-10T11:51:45;98981.34;;;10.75;56.50
34081;BME280;20358;50.272;19.026;2023-04-10T11:54:52;98971.09;;;10.71;55.96
34081;BME280;20358;50.272;19.026;2023-04-10T11:58:01;98966.56;;;10.73;56.13
34081;BME280;20358;50.272;19.026;2023-04-10T12:01:07;98966.16;;;10.79;56.00
34081;BME280;20358;50.272;19.026;2023-04-10T12:04:18;98966.28;;;10.90;56.18
34081;BME280;20358;50.272;19.026;2023-04-10T12:07:25;98948.56;;;10.92;55.66
34081;BME280;20358;50.272;19.026;2023-04-10T12:10:44;98946.31;;;10.86;55.77
34081;BME280;20358;50.272;19.026;2023-04-10T12:13:54;98941.84;;;10.74;56.10
34081;BME280;20358;50.272;19.026;2023-04-10T12:17:03;98938.66;;;10.69;56.22
34081;BME280;20358;50.272;19.026;2023-04-10T12:20:10;98933.56;;;10.66;56.14
34081;BME280;20358;50.272;19.026;2023-04-10T12:23:20;98932.06;;;10.62;56.29
34081;BME280;20358;50.272;19.026;2023-04-10T12:26:25;98925.09;;;10.61;56.67
34081;BME280;20358;50.272;19.026;2023-04-10T12:29:35;98927.19;;;10.56;56.08
34081;BME280;20358;50.272;19.026;2023-04-10T12:32:50;98918.72;;;10.51;54.96
34081;BME280;20358;50.272;19.026;2023-04-10T12:35:57;98914.72;;;10.58;55.32
34081;BME280;20358;50.272;19.026;2023-04-10T12:39:04;98911.41;;;10.41;56.17
34081;BME280;20358;50.272;19.026;2023-04-10T12:42:26;98915.44;;;10.47;55.95
34081;BME280;20358;50.272;19.026;2023-04-10T12:45:44;98897.19;;;10.57;56.06
34081;BME280;20358;50.272;19.026;2023-04-10T12:48:50;98908.06;;;10.52;55.49
34081;BME280;20358;50.272;19.026;2023-04-10T12:51:57;98884.41;;;10.51;55.06
34081;BME280;20358;50.272;19.026;2023-04-10T12:55:09;98888.72;;;10.52;55.43
34081;BME280;20358;50.272;19.026;2023-04-10T12:58:17;98883.78;;;10.60;55.55
34081;BME280;20358;50.272;19.026;2023-04-10T13:01:32;98882.66;;;10.64;54.93
34081;BME280;20358;50.272;19.026;2023-04-10T13:04:38;98867.25;;;10.83;55.43
34081;BME280;20358;50.272;19.026;2023-04-10T13:07:44;98855.41;;;11.01;54.10
34081;BME280;20358;50.272;19.026;2023-04-10T13:10:53;98859.22;;;11.22;53.42
34081;BME280;20358;50.272;19.026;2023-04-10T13:14:04;98860.09;;;11.35;53.09
34081;BME280;20358;50.272;19.026;2023-04-10T13:17:13;98860.31;;;11.32;53.37
34081;BME280;20358;50.272;19.026;2023-04-10T13:20:21;98844.75;;;11.40;53.78
34081;BME280;20358;50.272;19.026;2023-04-10T13:23:26;98834.25;;;11.64;53.26
34081;BME280;20358;50.272;19.026;2023-04-10T13:26:32;98836.78;;;11.65;51.79
34081;BME280;20358;50.272;19.026;2023-04-10T13:29:39;98834.84;;;11.67;51.70
34081;BME280;20358;50.272;19.026;2023-04-10T13:32:49;98831.78;;;11.74;51.44
34081;BME280;20358;50.272;19.026;2023-04-10T13:35:55;98825.56;;;11.75;52.23
34081;BME280;20358;50.272;19.026;2023-04-10T13:39:02;98828.50;;;11.83;51.86
34081;BME280;20358;50.272;19.026;2023-04-10T13:42:07;98820.38;;;11.97;52.24
34081;BME280;20358;50.272;19.026;2023-04-10T13:45:15;98810.59;;;12.10;52.28
34081;BME280;20358;50.272;19.026;2023-04-10T13:48:23;98813.09;;;12.24;51.42
34081;BME280;20358;50.272;19.026;2023-04-10T13:51:42;98819.34;;;12.23;50.14
34081;BME280;20358;50.272;19.026;2023-04-10T13:54:48;98815.25;;;12.19;50.15
34081;BME280;20358;50.272;19.026;2023-04-10T13:57:55;98806.47;;;12.18;49.81
34081;BME280;20358;50.272;19.026;2023-04-10T14:01:00;98807.59;;;12.27;50.69
34081;BME280;20358;50.272;19.026;2023-04-10T14:04:09;98806.75;;;12.26;49.58
34081;BME280;20358;50.272;19.026;2023-04-10T14:07:15;98792.47;;;12.40;49.94
34081;BME280;20358;50.272;19.026;2023-04-10T14:10:23;98799.94;;;12.46;49.13
34081;BME280;20358;50.272;19.026;2023-04-10T14:13:28;98794.16;;;12.41;48.67
34081;BME280;20358;50.272;19.026;2023-04-10T14:16:35;98780.47;;;12.23;49.08
34081;BME280;20358;50.272;19.026;2023-04-10T14:19:43;98785.81;;;12.11;50.05
34081;BME280;20358;50.272;19.026;2023-04-10T14:22:53;98774.56;;;12.20;49.07
34081;BME280;20358;50.272;19.026;2023-04-10T14:25:59;98757.44;;;12.37;48.97
34081;BME280;20358;50.272;19.026;2023-04-10T14:29:05;98751.09;;;12.50;49.24
34081;BME280;20358;50.272;19.026;2023-04-10T14:32:10;98749.75;;;12.56;49.13
34081;BME280;20358;50.272;19.026;2023-04-10T14:35:20;98763.84;;;12.45;49.10
34081;BME280;20358;50.272;19.026;2023-04-10T14:38:25;98761.75;;;12.38;49.33
34081;BME280;20358;50.272;19.026;2023-04-10T14:41:32;98756.81;;;12.33;49.50
34081;BME280;20358;50.272;19.026;2023-04-10T14:44:37;98760.16;;;12.24;49.86
34081;BME280;20358;50.272;19.026;2023-04-10T14:47:44;98753.78;;;12.26;49.84
34081;BME280;20358;50.272;19.026;2023-04-10T14:50:52;98742.72;;;12.33;49.60
34081;BME280;20358;50.272;19.026;2023-04-10T14:54:00;98734.81;;;12.44;49.65
34081;BME280;20358;50.272;19.026;2023-04-10T14:57:06;98737.03;;;12.61;49.33
34081;BME280;20358;50.272;19.026;2023-04-10T15:00:14;98736.16;;;12.71;49.71
34081;BME280;20358;50.272;19.026;2023-04-10T15:03:20;98736.66;;;12.65;49.34
34081;BME280;20358;50.272;19.026;2023-04-10T15:06:31;98730.72;;;12.51;48.89
34081;BME280;20358;50.272;19.026;2023-04-10T15:09:37;98722.59;;;12.30;50.75
34081;BME280;20358;50.272;19.026;2023-04-10T15:12:43;98719.22;;;12.28;50.37
34081;BME280;20358;50.272;19.026;2023-04-10T15:15:49;98722.38;;;12.33;50.92
34081;BME280;20358;50.272;19.026;2023-04-10T15:18:56;98723.84;;;12.37;50.60
34081;BME280;20358;50.272;19.026;2023-04-10T15:22:04;98725.28;;;12.41;50.36
34081;BME280;20358;50.272;19.026;2023-04-10T15:25:11;98731.78;;;12.48;49.26
34081;BME280;20358;50.272;19.026;2023-04-10T15:28:16;98723.88;;;12.59;49.91
34081;BME280;20358;50.272;19.026;2023-04-10T15:31:23;98728.19;;;12.49;50.43
34081;BME280;20358;50.272;19.026;2023-04-10T15:34:28;98732.47;;;12.28;50.44
34081;BME280;20358;50.272;19.026;2023-04-10T15:37:38;98736.81;;;12.29;50.76
34081;BME280;20358;50.272;19.026;2023-04-10T15:40:43;98720.44;;;12.35;51.18
34081;BME280;20358;50.272;19.026;2023-04-10T15:43:49;98716.22;;;12.21;50.55
34081;BME280;20358;50.272;19.026;2023-04-10T15:46:55;98715.28;;;12.34;50.52
34081;BME280;20358;50.272;19.026;2023-04-10T15:50:02;98708.69;;;12.50;50.44
34081;BME280;20358;50.272;19.026;2023-04-10T15:53:14;98710.16;;;12.65;50.23
34081;BME280;20358;50.272;19.026;2023-04-10T15:56:20;98708.47;;;12.75;49.65
34081;BME280;20358;50.272;19.026;2023-04-10T15:59:26;98698.00;;;12.85;49.67
34081;BME280;20358;50.272;19.026;2023-04-10T16:02:32;98710.19;;;12.76;49.72
34081;BME280;20358;50.272;19.026;2023-04-10T16:05:38;98709.44;;;12.74;49.48
34081;BME280;20358;50.272;19.026;2023-04-10T16:08:50;98729.44;;;12.78;50.02
34081;BME280;20358;50.272;19.026;2023-04-10T16:11:56;98729.31;;;12.80;48.20
34081;BME280;20358;50.272;19.026;2023-04-10T16:15:04;98729.50;;;12.44;48.89
34081;BME280;20358;50.272;19.026;2023-04-10T16:18:11;98742.47;;;12.12;50.96
34081;BME280;20358;50.272;19.026;2023-04-10T16:21:18;98741.97;;;11.72;53.15
34081;BME280;20358;50.272;19.026;2023-04-10T16:24:26;98730.31;;;11.38;55.94
34081;BME280;20358;50.272;19.026;2023-04-10T16:27:34;98721.81;;;10.97;57.60
34081;BME280;20358;50.272;19.026;2023-04-10T16:30:39;98722.88;;;10.57;58.43
34081;BME280;20358;50.272;19.026;2023-04-10T16:33:46;98730.91;;;10.30;60.19
34081;BME280;20358;50.272;19.026;2023-04-10T16:36:51;98720.59;;;10.13;61.38
34081;BME280;20358;50.272;19.026;2023-04-10T16:40:01;98727.22;;;10.06;61.51
34081;BME280;20358;50.272;19.026;2023-04-10T16:43:06;98723.00;;;10.03;61.92
34081;BME280;20358;50.272;19.026;2023-04-10T16:46:14;98715.28;;;10.00;61.30
34081;BME280;20358;50.272;19.026;2023-04-10T16:49:19;98712.63;;;10.00;62.40
34081;BME280;20358;50.272;19.026;2023-04-10T16:52:27;98707.03;;;9.92;61.83